Time;durP1;ratioP1;P1;durP2;ratioP2;P2;SDS_P1;SDS_P2;PMS_P1;PMS_P2;Temp;Humidity;BMP_temperature;BMP_pressure;BME280_temperature;BME280_humidity;BME280_pressure;Samples;Min_cycle;Max_cycle;Signal;HPM_P1;HPM_P2
2022/03/13 00:00:47;;;;;;;47.38;24.10;;;7.30;99.90;;;;;;5111411;28;20157;-67
2022/03/13 00:03:14;;;;;;;48.67;24.63;;;7.30;99.90;;;;;;5110383;28;20075;-66
2022/03/13 00:05:42;;;;;;;47.50;24.40;;;7.30;99.90;;;;;;5111852;28;20039;-66
2022/03/13 00:08:27;;;;;;;48.10;24.23;;;7.20;99.90;;;;;;5111771;28;20043;-67
2022/03/13 00:11:05;;;;;;;53.25;25.00;;;7.20;99.90;;;;;;5111266;28;20099;-67
2022/03/13 00:13:32;;;;;;;48.95;23.75;;;7.20;99.90;;;;;;5108400;28;20610;-66
2022/03/13 00:16:01;;;;;;;51.08;25.95;;;7.20;99.90;;;;;;5111701;28;20042;-67
2022/03/13 00:18:26;;;;;;;50.70;25.13;;;7.20;99.90;;;;;;5130108;28;20114;-67
2022/03/13 00:20:52;;;;;;;52.42;25.15;;;7.20;99.90;;;;;;5110832;28;20247;-67
2022/03/13 00:23:19;;;;;;;51.47;25.75;;;7.20;99.90;;;;;;5130007;28;20038;-67
2022/03/13 00:25:45;;;;;;;48.13;25.25;;;7.10;99.90;;;;;;5110210;28;20074;-67
2022/03/13 00:28:12;;;;;;;50.65;24.50;;;7.10;99.90;;;;;;5111580;28;20046;-67
2022/03/13 00:30:39;;;;;;;51.53;26.15;;;7.10;99.90;;;;;;5110808;28;20047;-67
2022/03/13 00:33:04;;;;;;;54.47;25.00;;;7.10;99.90;;;;;;5111063;28;20047;-67
2022/03/13 00:35:30;;;;;;;48.33;24.10;;;7.00;99.90;;;;;;5126163;27;20054;-66
2022/03/13 00:37:55;;;;;;;50.25;24.85;;;7.00;99.90;;;;;;5112568;27;20131;-67
2022/03/13 00:40:21;;;;;;;49.00;24.75;;;7.00;99.90;;;;;;5114600;27;20054;-67
2022/03/13 00:42:48;;;;;;;47.33;24.73;;;7.00;99.90;;;;;;5109520;27;20046;-67
2022/03/13 00:45:14;;;;;;;49.55;25.52;;;7.00;99.90;;;;;;5135629;27;20117;-67
2022/03/13 00:47:39;;;;;;;53.35;25.65;;;7.00;99.90;;;;;;5111649;27;20130;-67
2022/03/13 00:50:05;;;;;;;49.17;26.00;;;7.00;99.90;;;;;;5112837;27;20050;-67
2022/03/13 00:52:31;;;;;;;50.22;25.02;;;6.90;99.90;;;;;;5114543;27;20057;-67
2022/03/13 00:54:56;;;;;;;51.80;24.75;;;6.90;99.90;;;;;;5113441;27;20031;-67
2022/03/13 00:57:22;;;;;;;49.50;25.30;;;6.90;99.90;;;;;;5113823;27;20140;-67
2022/03/13 00:59:47;;;;;;;52.35;25.08;;;6.90;99.90;;;;;;5111757;27;20062;-68
2022/03/13 01:02:14;;;;;;;46.42;24.27;;;6.90;99.90;;;;;;5112021;27;20467;-67
2022/03/13 01:04:40;;;;;;;46.92;25.25;;;6.90;99.90;;;;;;5096249;27;20449;-66
2022/03/13 01:07:06;;;;;;;53.42;25.38;;;6.90;99.90;;;;;;5114356;27;20104;-67
2022/03/13 01:09:32;;;;;;;47.03;24.98;;;6.90;99.90;;;;;;5114748;27;20064;-66
2022/03/13 01:11:57;;;;;;;48.65;24.98;;;6.90;99.90;;;;;;5113582;27;20035;-67
2022/03/13 01:14:23;;;;;;;52.53;26.00;;;6.90;99.90;;;;;;5103846;27;20058;-67
2022/03/13 01:16:59;;;;;;;46.95;24.45;;;7.00;99.90;;;;;;5114866;27;20537;-67
2022/03/13 01:19:25;;;;;;;47.58;24.23;;;6.90;99.90;;;;;;5112479;27;20046;-67
2022/03/13 01:21:51;;;;;;;53.42;24.27;;;6.90;99.90;;;;;;5114065;27;20031;-67
2022/03/13 01:24:17;;;;;;;47.83;24.60;;;6.90;99.90;;;;;;5097170;27;20451;-67
2022/03/13 01:26:43;;;;;;;44.88;23.67;;;6.90;99.90;;;;;;5115024;27;20043;-67
2022/03/13 01:29:12;;;;;;;47.05;24.17;;;6.90;99.90;;;;;;5113629;27;20038;-67
2022/03/13 01:31:40;;;;;;;46.03;23.63;;;6.90;99.90;;;;;;5114620;27;20512;-67
2022/03/13 01:34:09;;;;;;;48.05;24.17;;;6.90;99.90;;;;;;5114080;27;20088;-67
2022/03/13 01:36:35;;;;;;;48.22;24.17;;;6.90;99.90;;;;;;5113894;27;20043;-68
2022/03/13 01:39:02;;;;;;;46.92;23.92;;;6.90;99.90;;;;;;5109975;27;20516;-67
2022/03/13 01:41:28;;;;;;;49.00;24.27;;;6.90;99.90;;;;;;5112834;27;20047;-67
2022/03/13 01:43:56;;;;;;;45.13;23.92;;;6.90;99.90;;;;;;5110963;27;20039;-67
2022/03/13 01:46:22;;;;;;;43.42;23.02;;;6.90;99.90;;;;;;5110445;27;20043;-67
2022/03/13 01:48:54;;;;;;;51.00;24.02;;;6.90;99.90;;;;;;5112845;27;20466;-67
2022/03/13 01:51:20;;;;;;;;;;;6.90;99.90;;;;;;5103530;27;20481;-67
2022/03/13 01:53:45;;;;;;;46.53;22.70;;;6.90;99.90;;;;;;5113696;27;19922;-67
2022/03/13 01:56:11;;;;;;;47.22;23.52;;;6.90;99.90;;;;;;5113996;27;20138;-67
2022/03/13 01:58:36;;;;;;;49.53;23.38;;;6.90;99.90;;;;;;5102515;27;20031;-67
2022/03/13 02:01:03;;;;;;;50.50;23.83;;;6.90;99.90;;;;;;5113308;27;20074;-67
2022/03/13 02:03:29;;;;;;;48.72;23.40;;;6.90;99.90;;;;;;5114322;27;20070;-67
2022/03/13 02:05:54;;;;;;;50.85;22.83;;;6.90;99.90;;;;;;5101831;27;20478;-67
2022/03/13 02:08:21;;;;;;;48.95;23.83;;;6.90;99.90;;;;;;5109628;27;20035;-67
2022/03/13 02:10:48;;;;;;;52.80;24.63;;;6.90;99.90;;;;;;5102424;27;20043;-67
2022/03/13 02:13:16;;;;;;;43.10;22.83;;;6.90;99.90;;;;;;5112314;27;20045;-67
2022/03/13 02:15:41;;;;;;;46.38;23.98;;;7.00;99.90;;;;;;5095698;27;20499;-67
2022/03/13 02:18:08;;;;;;;47.30;24.17;;;6.90;99.90;;;;;;5112487;27;20043;-67
2022/03/13 02:20:44;;;;;;;47.03;23.00;;;7.00;99.90;;;;;;5112878;27;20047;-66
2022/03/13 02:23:21;;;;;;;48.65;22.70;;;7.00;99.90;;;;;;5110464;27;20067;-67
2022/03/13 02:25:53;;;;;;;44.22;23.23;;;7.00;99.90;;;;;;5111734;27;20084;-67
2022/03/13 02:28:20;;;;;;;46.75;24.63;;;7.00;99.90;;;;;;5113191;27;20108;-67
2022/03/13 02:30:47;;;;;;;51.30;24.73;;;7.00;99.90;;;;;;5098547;28;20465;-67
2022/03/13 02:33:16;;;;;;;49.67;24.08;;;7.00;99.90;;;;;;5112002;27;20055;-67
2022/03/13 02:35:41;;;;;;;47.15;23.60;;;7.00;99.90;;;;;;5112521;27;20086;-67
2022/03/13 02:38:07;;;;;;;49.38;24.73;;;6.90;99.90;;;;;;5111727;27;20093;-67
2022/03/13 02:40:32;;;;;;;48.38;23.90;;;7.00;99.90;;;;;;5111750;27;20034;-67
2022/03/13 02:42:58;;;;;;;49.13;23.20;;;6.90;99.90;;;;;;5112862;27;20054;-67
2022/03/13 02:45:32;;;;;;;48.78;23.08;;;6.90;99.90;;;;;;5111990;27;20097;-67
2022/03/13 02:48:00;;;;;;;47.53;23.70;;;6.90;99.90;;;;;;5111773;27;20039;-67
2022/03/13 02:50:26;;;;;;;48.28;24.52;;;6.90;99.90;;;;;;5106713;27;20485;-67
2022/03/13 02:52:51;;;;;;;52.05;24.83;;;6.90;99.90;;;;;;5110104;27;20037;-67
2022/03/13 02:55:17;;;;;;;45.53;22.90;;;6.90;99.90;;;;;;5112379;27;20050;-67
2022/03/13 02:57:43;;;;;;;49.20;24.20;;;6.90;99.90;;;;;;5127286;27;20402;-67
2022/03/13 03:00:10;;;;;;;48.30;23.35;;;6.90;99.90;;;;;;5109975;27;20293;-67
2022/03/13 03:02:36;;;;;;;48.40;23.83;;;6.90;99.90;;;;;;5109756;27;20035;-67
2022/03/13 03:05:04;;;;;;;50.80;24.15;;;6.90;99.90;;;;;;5111550;27;20035;-67
2022/03/13 03:07:30;;;;;;;50.92;24.52;;;6.90;99.90;;;;;;5108267;27;20546;-67
2022/03/13 03:09:56;;;;;;;54.25;24.63;;;6.90;99.90;;;;;;5110305;27;20035;-67
2022/03/13 03:12:21;;;;;;;49.78;24.52;;;6.90;99.90;;;;;;5110306;27;20466;-67
2022/03/13 03:14:47;;;;;;;48.13;24.13;;;6.80;99.90;;;;;;5106126;27;20087;-67
2022/03/13 03:17:13;;;;;;;47.20;24.35;;;6.80;99.90;;;;;;5111267;27;20531;-67
2022/03/13 03:19:39;;;;;;;53.22;24.15;;;6.80;99.90;;;;;;5110864;27;20092;-67
2022/03/13 03:22:04;;;;;;;50.67;24.38;;;6.80;99.90;;;;;;5110131;27;20054;-67
2022/03/13 03:24:30;;;;;;;54.28;25.92;;;6.80;99.90;;;;;;5111933;28;20393;-67
2022/03/13 03:26:56;;;;;;;51.58;23.80;;;6.70;99.90;;;;;;5112678;27;20039;-67
2022/03/13 03:29:25;;;;;;;50.33;24.13;;;6.80;99.90;;;;;;5109572;27;20063;-67
2022/03/13 03:31:51;;;;;;;47.88;23.75;;;6.80;99.90;;;;;;5103929;28;20043;-66
2022/03/13 03:34:20;;;;;;;46.30;23.42;;;6.70;99.90;;;;;;5112144;27;20049;-67
2022/03/13 03:36:54;;;;;;;45.65;23.08;;;6.70;99.90;;;;;;5109316;27;20545;-66
2022/03/13 03:39:22;;;;;;;49.50;23.13;;;6.70;99.90;;;;;;5104479;28;20035;-67
2022/03/13 03:41:49;;;;;;;46.60;23.63;;;6.60;99.90;;;;;;5106609;28;20040;-67
2022/03/13 03:44:15;;;;;;;51.78;23.27;;;6.50;99.90;;;;;;5108903;28;20080;-67
2022/03/13 03:46:42;;;;;;;50.78;24.23;;;6.50;99.90;;;;;;5110311;28;20035;-67
2022/03/13 03:49:08;;;;;;;50.40;25.02;;;6.50;99.90;;;;;;5110766;28;20126;-67
2022/03/13 03:51:35;;;;;;;50.95;24.13;;;6.50;99.90;;;;;;5130012;28;20046;-67
2022/03/13 03:54:01;;;;;;;51.53;24.17;;;6.50;99.90;;;;;;5110048;28;20047;-67
2022/03/13 03:56:27;;;;;;;47.50;23.23;;;6.40;99.90;;;;;;5107800;28;20042;-67
2022/03/13 03:58:53;;;;;;;49.00;24.15;;;6.50;99.90;;;;;;5110332;28;20043;-67
2022/03/13 04:01:18;;;;;;;54.00;24.70;;;6.40;99.90;;;;;;5110820;28;20031;-67
2022/03/13 04:03:44;;;;;;;52.70;26.35;;;6.30;99.90;;;;;;5108195;28;20045;-67
2022/03/13 04:06:09;;;;;;;50.88;24.00;;;6.30;99.90;;;;;;5109720;28;20034;-67
2022/03/13 04:08:35;;;;;;;50.38;24.67;;;6.30;99.90;;;;;;5106569;28;20042;-67
2022/03/13 04:11:01;;;;;;;50.75;25.30;;;6.20;99.90;;;;;;5105560;27;20401;-67
2022/03/13 04:13:28;;;;;;;49.50;24.60;;;6.20;99.90;;;;;;5112039;27;20050;-67
2022/03/13 04:15:55;;;;;;;49.33;23.60;;;6.10;99.90;;;;;;5115373;27;20043;-67
2022/03/13 04:18:20;;;;;;;48.50;22.98;;;6.10;99.90;;;;;;5115532;27;20043;-67
2022/03/13 04:20:46;;;;;;;51.92;24.92;;;6.00;99.90;;;;;;5114911;27;20046;-67
2022/03/13 04:23:11;;;;;;;49.42;24.23;;;6.00;99.90;;;;;;5114720;27;20069;-67
2022/03/13 04:25:38;;;;;;;52.92;24.77;;;6.00;99.90;;;;;;5115126;27;20169;-67
2022/03/13 04:28:04;;;;;;;49.58;24.00;;;6.00;99.90;;;;;;5110355;27;20062;-67
2022/03/13 04:30:31;;;;;;;52.05;25.42;;;6.00;99.90;;;;;;5115095;27;20101;-67
2022/03/13 04:32:57;;;;;;;49.83;23.98;;;6.00;99.90;;;;;;5113641;27;20039;-67
2022/03/13 04:35:24;;;;;;;50.28;24.05;;;6.00;99.90;;;;;;5108370;27;20498;-68
2022/03/13 04:37:50;;;;;;;49.53;24.75;;;6.00;99.90;;;;;;5129460;27;20039;-67
2022/03/13 04:40:16;;;;;;;52.60;23.35;;;5.90;99.90;;;;;;5111366;27;20031;-67
2022/03/13 04:42:41;;;;;;;49.58;24.52;;;6.00;99.90;;;;;;5112216;27;20410;-67
2022/03/13 04:45:07;;;;;;;48.00;24.02;;;6.00;99.90;;;;;;5114345;27;20042;-67
2022/03/13 04:47:34;;;;;;;50.88;24.58;;;6.00;99.90;;;;;;5115047;27;20510;-66
2022/03/13 04:49:59;;;;;;;48.97;23.52;;;6.00;99.90;;;;;;5114301;27;20035;-67
2022/03/13 04:52:26;;;;;;;48.15;23.98;;;6.00;99.90;;;;;;5112408;27;20084;-67
2022/03/13 04:54:51;;;;;;;48.10;23.42;;;6.00;99.90;;;;;;5112119;27;20035;-67
2022/03/13 04:57:17;;;;;;;46.67;23.95;;;5.90;99.90;;;;;;5111708;27;20038;-67
2022/03/13 04:59:43;;;;;;;52.58;24.15;;;6.00;99.90;;;;;;5113107;27;20118;-67
2022/03/13 05:02:09;;;;;;;45.20;23.40;;;5.90;99.90;;;;;;5111670;27;20133;-67
2022/03/13 05:04:34;;;;;;;48.15;23.33;;;5.90;99.90;;;;;;5112542;27;20126;-67
2022/03/13 05:07:00;;;;;;;50.58;23.27;;;5.90;99.90;;;;;;5114544;27;20031;-67
2022/03/13 05:09:26;;;;;;;47.00;24.30;;;5.90;99.90;;;;;;5108042;27;20042;-67
2022/03/13 05:11:52;;;;;;;50.33;23.25;;;5.90;99.90;;;;;;5113729;27;20039;-67
2022/03/13 05:14:17;;;;;;;45.60;22.38;;;5.80;99.90;;;;;;5110699;27;20445;-67
2022/03/13 05:16:43;;;;;;;45.15;21.90;;;5.80;99.90;;;;;;5113893;27;20043;-67
2022/03/13 05:19:09;;;;;;;47.92;24.08;;;5.80;99.90;;;;;;5129021;27;20050;-67
2022/03/13 05:21:34;;;;;;;45.25;22.23;;;5.90;99.90;;;;;;5113408;27;20062;-68
2022/03/13 05:24:00;;;;;;;50.20;23.20;;;5.90;99.90;;;;;;5113264;27;20046;-67
2022/03/13 05:26:26;;;;;;;47.00;23.35;;;5.90;99.90;;;;;;5113571;27;20066;-67
2022/03/13 05:28:51;;;;;;;47.90;22.75;;;5.90;99.90;;;;;;5112827;27;20572;-67
2022/03/13 05:31:17;;;;;;;45.53;22.67;;;5.90;99.90;;;;;;5114065;27;20046;-67
2022/03/13 05:33:43;;;;;;;44.53;22.27;;;5.90;99.90;;;;;;5112371;27;20501;-68
2022/03/13 05:36:09;;;;;;;50.58;23.52;;;5.90;99.90;;;;;;5113480;27;20043;-67
2022/03/13 05:38:35;;;;;;;45.20;22.77;;;5.90;99.90;;;;;;5131612;27;20046;-67
2022/03/13 05:41:01;;;;;;;43.92;22.85;;;5.90;99.90;;;;;;5112706;27;20043;-67
2022/03/13 05:43:31;;;;;;;48.53;23.17;;;5.90;99.90;;;;;;5127581;27;20043;-67
2022/03/13 05:45:56;;;;;;;47.42;23.42;;;5.90;99.90;;;;;;5112900;27;20035;-67
2022/03/13 05:48:22;;;;;;;48.17;24.10;;;5.90;99.90;;;;;;5108514;27;20046;-67
2022/03/13 05:50:48;;;;;;;47.92;23.05;;;5.90;99.90;;;;;;5113108;27;20043;-67
2022/03/13 05:53:15;;;;;;;48.58;22.88;;;5.90;99.90;;;;;;5113265;27;20035;-67
2022/03/13 05:55:40;;;;;;;45.20;23.30;;;5.90;99.90;;;;;;5112812;27;20050;-66
2022/03/13 05:58:06;;;;;;;49.00;23.23;;;5.90;99.90;;;;;;5105388;27;20043;-68
2022/03/13 06:00:32;;;;;;;49.22;22.75;;;5.90;99.90;;;;;;5112516;27;20146;-67
2022/03/13 06:03:00;;;;;;;48.20;22.92;;;5.90;99.90;;;;;;5111518;27;20150;-67
2022/03/13 06:05:26;;;;;;;49.85;23.23;;;5.90;99.90;;;;;;5112901;27;20122;-67
2022/03/13 06:07:52;;;;;;;47.83;23.27;;;5.90;99.90;;;;;;5112430;27;20035;-67
2022/03/13 06:10:17;;;;;;;48.70;23.80;;;5.90;99.90;;;;;;5112312;27;20057;-67
2022/03/13 06:12:43;;;;;;;48.08;23.60;;;5.90;99.90;;;;;;5108011;27;20455;-67
2022/03/13 06:15:14;;;;;;;53.10;23.40;;;5.90;99.90;;;;;;5129358;27;20031;-67
2022/03/13 06:17:42;;;;;;;45.80;23.17;;;5.90;99.90;;;;;;5113763;27;20042;-67
2022/03/13 06:20:10;;;;;;;46.08;22.48;;;5.90;99.90;;;;;;5112703;27;20504;-67
2022/03/13 06:22:37;;;;;;;45.90;23.52;;;6.00;99.90;;;;;;5115050;27;20035;-67
2022/03/13 06:25:03;;;;;;;49.50;24.23;;;6.00;99.90;;;;;;5131099;27;20509;-67
2022/03/13 06:27:30;;;;;;;45.78;22.95;;;6.00;99.90;;;;;;5128139;27;20051;-67
2022/03/13 06:29:55;;;;;;;45.08;23.38;;;6.10;99.90;;;;;;5105800;27;20031;-66
2022/03/13 06:32:22;;;;;;;49.92;24.17;;;6.10;99.90;;;;;;5106901;27;20054;-67
2022/03/13 06:34:48;;;;;;;50.20;23.60;;;6.10;99.90;;;;;;5096474;27;20168;-67
2022/03/13 06:37:14;;;;;;;54.47;24.50;;;6.10;99.90;;;;;;5112016;27;20396;-66
2022/03/13 06:39:39;;;;;;;47.47;23.45;;;6.20;99.90;;;;;;5113635;27;20118;-66
2022/03/13 06:42:05;;;;;;;49.38;23.60;;;6.20;99.90;;;;;;5111611;27;20070;-67
2022/03/13 06:44:31;;;;;;;48.97;23.48;;;6.20;99.90;;;;;;5132263;27;20073;-67
2022/03/13 06:46:56;;;;;;;46.65;23.00;;;6.30;99.90;;;;;;5113425;27;20043;-67
2022/03/13 06:49:22;;;;;;;50.65;22.33;;;6.30;99.90;;;;;;5111144;27;20394;-67
2022/03/13 06:51:48;;;;;;;47.35;23.85;;;6.30;99.90;;;;;;5104045;27;20054;-67
2022/03/13 06:54:13;;;;;;;49.40;23.55;;;6.30;99.90;;;;;;5112562;27;20035;-67
2022/03/13 06:56:40;;;;;;;45.20;23.25;;;6.40;99.90;;;;;;5111769;27;20046;-67
2022/03/13 06:59:06;;;;;;;45.55;23.40;;;6.50;99.90;;;;;;5093402;27;20401;-67
2022/03/13 07:01:33;;;;;;;46.67;22.38;;;6.50;99.90;;;;;;5109041;27;20047;-67
2022/03/13 07:03:58;;;;;;;46.05;23.70;;;6.60;99.90;;;;;;5129944;27;20031;-67
2022/03/13 07:06:24;;;;;;;48.50;23.75;;;6.60;99.90;;;;;;5108312;27;20088;-67
2022/03/13 07:08:49;;;;;;;46.08;23.48;;;6.70;99.90;;;;;;5110969;27;20069;-67
2022/03/13 07:11:15;;;;;;;47.92;23.27;;;6.80;99.90;;;;;;5111790;27;20114;-68
2022/03/13 07:13:43;;;;;;;43.47;23.02;;;6.80;99.90;;;;;;5105863;27;20113;-68
2022/03/13 07:16:10;;;;;;;46.58;23.55;;;6.90;99.90;;;;;;5094849;27;20389;-67
2022/03/13 07:18:36;;;;;;;47.80;23.05;;;6.90;99.90;;;;;;5111277;27;20073;-67
2022/03/13 07:21:01;;;;;;;51.92;22.95;;;6.90;99.90;;;;;;5111557;27;20043;-67
2022/03/13 07:23:27;;;;;;;44.85;22.30;;;7.00;99.90;;;;;;5111842;27;20039;-67
2022/03/13 07:25:53;;;;;;;48.50;23.98;;;7.10;99.90;;;;;;5111369;27;20789;-67
2022/03/13 07:28:19;;;;;;;47.00;23.50;;;7.10;99.90;;;;;;5110748;28;20039;-68
2022/03/13 07:30:45;;;;;;;50.45;23.65;;;7.10;99.90;;;;;;5111421;27;20047;-68
2022/03/13 07:33:10;;;;;;;47.17;23.77;;;7.20;99.90;;;;;;5110141;28;20469;-67
2022/03/13 07:35:37;;;;;;;45.70;23.65;;;7.30;99.90;;;;;;5111688;27;20035;-67
2022/03/13 07:38:03;;;;;;;48.45;24.13;;;7.30;99.90;;;;;;5106575;27;20231;-67
2022/03/13 07:40:29;;;;;;;51.60;25.00;;;7.40;99.90;;;;;;5127445;27;20129;-67
2022/03/13 07:42:54;;;;;;;50.10;24.45;;;7.40;99.90;;;;;;5110607;28;20107;-67
2022/03/13 07:45:20;;;;;;;48.63;23.13;;;7.50;99.90;;;;;;5110086;28;20106;-66
2022/03/13 07:47:46;;;;;;;46.88;23.75;;;7.60;99.90;;;;;;5113571;27;20375;-67
2022/03/13 07:50:12;;;;;;;47.15;23.73;;;7.70;99.90;;;;;;5112145;27;20038;-67
2022/03/13 07:52:38;;;;;;;43.70;23.02;;;7.80;99.90;;;;;;5114161;27;20066;-66
2022/03/13 07:55:04;;;;;;;49.40;23.98;;;7.90;99.90;;;;;;5115718;27;20047;-67
2022/03/13 07:57:30;;;;;;;50.78;24.38;;;8.00;99.90;;;;;;5111733;27;20043;-67
2022/03/13 07:59:55;;;;;;;48.40;24.15;;;8.00;99.90;;;;;;5111073;27;20046;-67
2022/03/13 08:02:20;;;;;;;45.72;23.20;;;8.20;99.90;;;;;;5114396;27;20031;-67
2022/03/13 08:04:46;;;;;;;45.80;23.15;;;8.40;99.90;;;;;;5115971;27;20092;-67
2022/03/13 08:07:12;;;;;;;45.60;23.20;;;8.50;99.90;;;;;;5114110;27;20067;-67
2022/03/13 08:09:39;;;;;;;43.60;22.65;;;8.70;99.90;;;;;;5113735;27;20545;-67
2022/03/13 08:12:05;;;;;;;47.97;23.20;;;8.90;99.90;;;;;;5113458;27;20050;-67
2022/03/13 08:14:30;;;;;;;43.28;22.13;;;9.00;99.90;;;;;;5132685;27;20027;-67
2022/03/13 08:16:56;;;;;;;46.20;23.00;;;9.10;99.90;;;;;;5115133;27;20039;-67
2022/03/13 08:19:21;;;;;;;46.08;22.30;;;9.30;99.90;;;;;;5116136;27;20057;-67
2022/03/13 08:21:47;;;;;;;49.28;23.08;;;9.40;99.90;;;;;;5114043;27;20035;-67
2022/03/13 08:24:15;;;;;;;43.78;21.83;;;9.50;99.90;;;;;;5115345;27;20086;-67
2022/03/13 08:26:41;;;;;;;43.47;22.15;;;9.70;99.90;;;;;;5133015;27;20027;-67
2022/03/13 08:29:07;;;;;;;44.80;22.60;;;9.80;99.90;;;;;;5132336;27;20042;-67
2022/03/13 08:31:34;;;;;;;45.55;22.83;;;10.00;99.90;;;;;;5108263;27;20536;-66
2022/03/13 08:34:01;;;;;;;46.08;22.40;;;10.10;99.90;;;;;;5132839;27;20035;-67
2022/03/13 08:36:27;;;;;;;45.88;22.30;;;10.20;99.90;;;;;;5113871;27;20043;-67
2022/03/13 08:38:53;;;;;;;42.92;22.73;;;10.30;99.90;;;;;;5113252;27;20125;-67
2022/03/13 08:41:19;;;;;;;51.25;23.55;;;10.40;99.90;;;;;;5114122;27;20134;-67
2022/03/13 08:43:44;;;;;;;48.00;22.92;;;10.50;99.90;;;;;;5132316;27;20062;-67
2022/03/13 08:46:12;;;;;;;44.40;22.83;;;10.60;99.90;;;;;;5110790;27;20566;-67
2022/03/13 08:48:39;;;;;;;43.53;21.88;;;10.80;99.90;;;;;;5111813;27;20035;-67
2022/03/13 08:51:05;;;;;;;47.90;23.75;;;11.00;99.90;;;;;;5132833;27;20046;-67
2022/03/13 08:53:31;;;;;;;48.55;23.42;;;11.20;99.90;;;;;;5115721;27;20039;-67
2022/03/13 08:55:56;;;;;;;45.70;22.73;;;11.40;99.90;;;;;;5114656;27;20046;-67
2022/03/13 08:58:22;;;;;;;43.80;21.88;;;11.40;99.90;;;;;;5133128;27;20098;-67
2022/03/13 09:00:50;;;;;;;53.80;22.58;;;11.50;99.90;;;;;;5108320;27;20126;-67
2022/03/13 09:03:15;;;;;;;48.28;23.00;;;11.50;99.90;;;;;;5133630;27;20035;-67
2022/03/13 09:05:41;;;;;;;41.78;20.98;;;11.60;99.90;;;;;;5114608;27;20046;-67
2022/03/13 09:08:06;;;;;;;54.95;24.13;;;11.70;99.90;;;;;;5113488;27;20039;-67
2022/03/13 09:10:32;;;;;;;48.20;23.55;;;11.70;99.90;;;;;;5112267;27;20524;-67
2022/03/13 09:12:58;;;;;;;45.38;22.48;;;11.80;99.90;;;;;;5113295;27;20130;-67
2022/03/13 09:15:23;;;;;;;45.03;22.40;;;11.80;99.90;;;;;;5115077;27;20134;-67
2022/03/13 09:17:53;;;;;;;47.13;22.13;;;11.90;99.90;;;;;;5115077;27;20134;-67
2022/03/13 09:20:20;;;;;;;47.65;22.38;;;11.90;99.90;;;;;;5106496;27;20100;-67
2022/03/13 09:22:47;;;;;;;41.38;21.13;;;12.00;99.90;;;;;;5136781;27;20095;-67
2022/03/13 09:25:12;;;;;;;44.42;21.42;;;12.00;99.90;;;;;;5113955;27;20054;-67
2022/03/13 09:27:38;;;;;;;43.30;21.38;;;11.90;99.00;;;;;;5132601;27;20043;-67
2022/03/13 09:30:04;;;;;;;41.90;21.58;;;11.90;98.70;;;;;;5114339;27;20043;-67
2022/03/13 09:32:29;;;;;;;42.47;21.35;;;11.90;96.70;;;;;;5133045;27;20046;-67
2022/03/13 09:34:55;;;;;;;45.05;21.63;;;11.90;97.60;;;;;;5114011;27;20039;-67
2022/03/13 09:37:21;;;;;;;42.90;21.33;;;12.00;96.30;;;;;;5114924;27;20122;-66
2022/03/13 09:39:47;;;;;;;43.85;21.05;;;12.00;93.40;;;;;;5106026;27;20478;-67
2022/03/13 09:42:13;;;;;;;46.28;22.15;;;12.00;95.20;;;;;;5114544;27;20080;-66
2022/03/13 09:44:38;;;;;;;43.63;21.73;;;12.10;96.70;;;;;;5114408;27;20038;-67
2022/03/13 09:47:05;;;;;;;44.70;21.92;;;12.10;93.20;;;;;;5113818;27;20043;-66
2022/03/13 09:49:31;;;;;;;44.70;21.42;;;12.20;95.10;;;;;;5114095;27;20043;-67
2022/03/13 09:51:57;;;;;;;45.65;21.55;;;12.30;94.60;;;;;;5113588;27;20042;-67
2022/03/13 09:54:22;;;;;;;45.72;22.08;;;12.30;92.20;;;;;;5108047;27;20042;-68
2022/03/13 09:56:48;;;;;;;45.10;21.63;;;12.40;90.50;;;;;;5131472;27;20382;-67
2022/03/13 09:59:13;;;;;;;48.00;21.55;;;12.50;91.70;;;;;;5112018;27;20067;-67
2022/03/13 10:01:40;;;;;;;45.70;21.42;;;12.50;91.00;;;;;;5113333;27;20035;-67
2022/03/13 10:04:06;;;;;;;43.65;21.92;;;12.60;91.80;;;;;;5113969;27;20047;-68
2022/03/13 10:06:52;;;;;;;46.60;21.60;;;12.70;92.80;;;;;;5114360;27;20307;-67
2022/03/13 10:09:25;;;;;;;43.30;21.38;;;12.80;89.40;;;;;;5106632;27;20036;-67
2022/03/13 10:12:16;;;;;;;48.17;21.73;;;12.90;88.50;;;;;;5112656;27;20042;-68
2022/03/13 10:15:01;;;;;;;40.70;20.58;;;13.00;89.90;;;;;;5107781;27;20501;-67
2022/03/13 10:17:31;;;;;;;44.78;21.88;;;13.10;85.80;;;;;;5112285;27;20047;-67
2022/03/13 10:20:14;;;;;;;42.70;22.10;;;13.20;86.00;;;;;;5109910;27;20444;-67
2022/03/13 10:22:41;;;;;;;44.10;21.27;;;13.30;77.00;;;;;;5130012;27;20430;-67
2022/03/13 10:25:07;;;;;;;45.10;22.30;;;13.40;84.70;;;;;;5112827;27;20035;-67
2022/03/13 10:27:35;;;;;;;43.45;22.65;;;13.40;84.50;;;;;;5112530;27;20185;-67
2022/03/13 10:30:08;;;;;;;45.92;22.02;;;13.60;84.90;;;;;;5111057;27;20039;-68
2022/03/13 10:32:36;;;;;;;49.25;23.10;;;13.70;83.20;;;;;;5112865;27;20059;-67
2022/03/13 10:35:01;;;;;;;43.92;21.80;;;13.80;77.60;;;;;;5109257;27;20039;-67
2022/03/13 10:37:43;;;;;;;46.40;22.65;;;13.80;77.50;;;;;;5122811;27;20389;-67
2022/03/13 10:40:13;;;;;;;46.47;23.05;;;13.90;69.80;;;;;;5109867;27;20050;-67
2022/03/13 10:42:43;;;;;;;43.70;21.10;;;13.90;69.40;;;;;;5109528;27;20044;-67
2022/03/13 10:45:30;;;;;;;47.63;23.25;;;13.90;68.80;;;;;;5127724;27;20039;-67
2022/03/13 10:48:14;;;;;;;45.80;23.02;;;14.00;71.40;;;;;;5110396;27;20035;-67
2022/03/13 10:50:44;;;;;;;43.85;21.80;;;14.10;68.80;;;;;;5109472;27;20035;-67
2022/03/13 10:53:13;;;;;;;46.50;22.60;;;14.20;70.00;;;;;;5110165;27;20046;-67
2022/03/13 10:55:41;;;;;;;44.58;23.08;;;14.30;69.40;;;;;;5112215;27;20526;-67
2022/03/13 10:58:07;;;;;;;44.53;22.40;;;14.40;70.70;;;;;;5111019;27;20050;-67
2022/03/13 11:00:34;;;;;;;50.85;23.38;;;14.30;70.10;;;;;;5110923;27;20027;-67
2022/03/13 11:03:11;;;;;;;42.97;21.40;;;14.30;68.80;;;;;;5130383;27;20397;-67
2022/03/13 11:05:37;;;;;;;46.58;21.92;;;14.20;68.60;;;;;;5112253;27;20381;-67
2022/03/13 11:08:04;;;;;;;46.85;23.25;;;14.20;74.20;;;;;;5109893;27;20043;-67
2022/03/13 11:10:30;;;;;;;44.95;22.92;;;14.20;74.00;;;;;;5092489;27;20053;-68
2022/03/13 11:12:57;;;;;;;46.53;23.08;;;14.30;73.80;;;;;;5107994;28;20101;-67
2022/03/13 11:15:31;;;;;;;43.40;21.40;;;14.50;74.40;;;;;;5130156;27;20066;-67
2022/03/13 11:17:58;;;;;;;46.83;22.42;;;14.80;75.30;;;;;;5111013;27;20046;-67
2022/03/13 11:20:25;;;;;;;45.20;22.42;;;15.10;76.00;;;;;;5110493;27;20302;-68
2022/03/13 11:22:50;;;;;;;42.78;21.90;;;15.30;74.30;;;;;;5110871;27;20039;-67
2022/03/13 11:25:17;;;;;;;45.63;22.45;;;15.50;69.80;;;;;;5130062;27;20045;-67
2022/03/13 11:27:45;;;;;;;42.97;21.90;;;15.60;64.00;;;;;;5108246;27;20092;-67
2022/03/13 11:30:14;;;;;;;45.97;22.67;;;15.70;61.20;;;;;;5110768;28;20042;-67
2022/03/13 11:32:52;;;;;;;44.95;22.42;;;15.80;64.40;;;;;;5111492;27;20473;-67
2022/03/13 11:35:20;;;;;;;44.97;22.75;;;15.80;63.60;;;;;;5111079;27;20035;-67
2022/03/13 11:37:50;;;;;;;42.42;23.08;;;15.90;65.30;;;;;;5111391;28;20043;-67
2022/03/13 11:40:18;;;;;;;45.78;22.15;;;15.90;64.90;;;;;;5108970;27;20046;-67
2022/03/13 11:42:49;;;;;;;42.03;21.85;;;16.00;66.20;;;;;;5108760;28;20046;-67
2022/03/13 11:45:46;;;;;;;46.92;23.40;;;16.00;64.40;;;;;;5112030;28;20046;-67
2022/03/13 11:48:18;;;;;;;48.97;23.75;;;16.00;60.20;;;;;;5101826;28;20263;-67
2022/03/13 11:50:58;;;;;;;47.38;22.73;;;16.00;63.50;;;;;;5129551;28;20047;-68
2022/03/13 11:53:25;;;;;;;44.88;23.10;;;16.10;61.90;;;;;;5112546;28;20047;-67
2022/03/13 11:56:00;;;;;;;44.08;23.05;;;16.20;61.10;;;;;;5111566;28;20103;-67
2022/03/13 11:58:53;;;;;;;45.25;22.80;;;16.20;61.00;;;;;;5112961;28;20498;-67
2022/03/13 12:01:33;;;;;;;44.25;22.85;;;16.20;59.90;;;;;;5109516;28;20049;-67
2022/03/13 12:04:01;;;;;;;42.90;23.63;;;16.10;61.50;;;;;;5110562;28;20381;-67
2022/03/13 12:06:41;;;;;;;43.40;22.88;;;16.20;62.30;;;;;;5111336;28;20402;-67
2022/03/13 12:09:12;;;;;;;43.38;22.58;;;16.30;61.10;;;;;;5107526;28;20550;-67
2022/03/13 12:11:50;;;;;;;44.10;22.45;;;16.40;61.30;;;;;;5110705;28;20039;-67
2022/03/13 12:14:17;;;;;;;44.33;22.88;;;16.40;60.10;;;;;;5106992;28;20050;-67
2022/03/13 12:16:45;;;;;;;41.58;21.60;;;16.40;60.40;;;;;;5110908;28;20039;-67
2022/03/13 12:19:12;;;;;;;39.08;21.00;;;16.40;60.10;;;;;;5110083;28;20534;-67
2022/03/13 12:21:43;;;;;;;44.28;22.30;;;16.40;59.20;;;;;;5110271;28;20833;-67
2022/03/13 12:24:15;;;;;;;43.05;21.85;;;16.40;58.70;;;;;;5110691;28;20035;-67
2022/03/13 12:26:45;;;;;;;43.08;22.05;;;16.40;60.30;;;;;;5110884;28;20035;-67
2022/03/13 12:29:17;;;;;;;41.38;21.95;;;16.40;59.50;;;;;;5107175;27;20512;-66
2022/03/13 12:31:47;;;;;;;42.88;22.67;;;16.50;59.20;;;;;;5109060;28;20064;-66
2022/03/13 12:34:13;;;;;;;40.45;22.20;;;16.50;59.90;;;;;;5111356;27;20445;-66